sensor_id;sensor_type;location;lat;lon;timestamp;temperature;humidity
66096;SHT31;53861;53.422;14.530;2023-08-06T00:00:39;16.71;88.82
66096;SHT31;53861;53.422;14.530;2023-08-06T00:03:06;16.64;89.25
66096;SHT31;53861;53.422;14.530;2023-08-06T00:05:33;16.61;89.64
66096;SHT31;53861;53.422;14.530;2023-08-06T00:08:00;16.61;89.50
66096;SHT31;53861;53.422;14.530;2023-08-06T00:10:27;16.65;89.66
66096;SHT31;53861;53.422;14.530;2023-08-06T00:12:54;16.67;89.52
66096;SHT31;53861;53.422;14.530;2023-08-06T00:15:23;16.61;89.65
66096;SHT31;53861;53.422;14.530;2023-08-06T00:17:50;16.56;90.28
66096;SHT31;53861;53.422;14.530;2023-08-06T00:20:17;16.47;90.59
66096;SHT31;53861;53.422;14.530;2023-08-06T00:22:44;16.57;90.44
66096;SHT31;53861;53.422;14.530;2023-08-06T00:25:11;16.48;90.75
66096;SHT31;53861;53.422;14.530;2023-08-06T00:27:38;16.43;91.24
66096;SHT31;53861;53.422;14.530;2023-08-06T00:30:05;16.47;91.32
66096;SHT31;53861;53.422;14.530;2023-08-06T00:32:34;16.40;91.59
66096;SHT31;53861;53.422;14.530;2023-08-06T00:35:00;16.40;92.14
66096;SHT31;53861;53.422;14.530;2023-08-06T00:37:28;16.41;92.75
66096;SHT31;53861;53.422;14.530;2023-08-06T00:39:55;16.38;92.41
66096;SHT31;53861;53.422;14.530;2023-08-06T00:42:22;16.43;92.59
66096;SHT31;53861;53.422;14.530;2023-08-06T00:44:49;16.33;93.31
66096;SHT31;53861;53.422;14.530;2023-08-06T00:47:16;16.30;93.59
66096;SHT31;53861;53.422;14.530;2023-08-06T00:49:45;16.20;93.73
66096;SHT31;53861;53.422;14.530;2023-08-06T00:52:12;16.26;93.96
66096;SHT31;53861;53.422;14.530;2023-08-06T00:54:39;16.24;94.12
66096;SHT31;53861;53.422;14.530;2023-08-06T00:57:06;16.27;93.56
66096;SHT31;53861;53.422;14.530;2023-08-06T00:59:34;16.30;93.97
66096;SHT31;53861;53.422;14.530;2023-08-06T01:02:01;16.33;94.20
66096;SHT31;53861;53.422;14.530;2023-08-06T01:04:28;16.34;94.40
66096;SHT31;53861;53.422;14.530;2023-08-06T01:06:59;16.40;94.53
66096;SHT31;53861;53.422;14.530;2023-08-06T01:09:34;16.44;94.46
66096;SHT31;53861;53.422;14.530;2023-08-06T01:12:05;16.41;94.69
66096;SHT31;53861;53.422;14.530;2023-08-06T01:14:34;16.44;94.09
66096;SHT31;53861;53.422;14.530;2023-08-06T01:17:04;16.43;94.45
66096;SHT31;53861;53.422;14.530;2023-08-06T01:19:31;16.47;94.77
66096;SHT31;53861;53.422;14.530;2023-08-06T01:21:59;16.47;94.50
66096;SHT31;53861;53.422;14.530;2023-08-06T01:24:26;16.43;94.83
66096;SHT31;53861;53.422;14.530;2023-08-06T01:26:54;16.46;94.57
66096;SHT31;53861;53.422;14.530;2023-08-06T01:29:25;16.46;94.35
66096;SHT31;53861;53.422;14.530;2023-08-06T01:31:53;16.33;94.55
66096;SHT31;53861;53.422;14.530;2023-08-06T01:34:21;16.37;94.52
66096;SHT31;53861;53.422;14.530;2023-08-06T01:36:48;16.36;94.81
66096;SHT31;53861;53.422;14.530;2023-08-06T01:39:17;16.40;95.18
66096;SHT31;53861;53.422;14.530;2023-08-06T01:41:46;16.33;95.21
66096;SHT31;53861;53.422;14.530;2023-08-06T01:44:19;16.34;95.40
66096;SHT31;53861;53.422;14.530;2023-08-06T01:46:46;16.30;95.61
66096;SHT31;53861;53.422;14.530;2023-08-06T01:49:13;16.34;95.67
66096;SHT31;53861;53.422;14.530;2023-08-06T01:51:40;16.38;96.02
66096;SHT31;53861;53.422;14.530;2023-08-06T01:54:07;16.40;95.79
66096;SHT31;53861;53.422;14.530;2023-08-06T01:56:39;16.38;95.96
66096;SHT31;53861;53.422;14.530;2023-08-06T01:59:09;16.43;95.91
66096;SHT31;53861;53.422;14.530;2023-08-06T02:01:36;16.34;95.48
66096;SHT31;53861;53.422;14.530;2023-08-06T02:04:03;16.34;95.80
66096;SHT31;53861;53.422;14.530;2023-08-06T02:06:30;16.33;96.26
66096;SHT31;53861;53.422;14.530;2023-08-06T02:08:57;16.33;96.32
66096;SHT31;53861;53.422;14.530;2023-08-06T02:11:23;16.33;96.49
66096;SHT31;53861;53.422;14.530;2023-08-06T02:13:52;16.31;96.51
66096;SHT31;53861;53.422;14.530;2023-08-06T02:16:19;16.31;96.66
66096;SHT31;53861;53.422;14.530;2023-08-06T02:18:46;16.33;96.95
66096;SHT31;53861;53.422;14.530;2023-08-06T02:21:13;16.38;97.05
66096;SHT31;53861;53.422;14.530;2023-08-06T02:23:40;16.40;96.82
66096;SHT31;53861;53.422;14.530;2023-08-06T02:26:07;16.34;96.74
66096;SHT31;53861;53.422;14.530;2023-08-06T02:28:33;16.40;97.27
66096;SHT31;53861;53.422;14.530;2023-08-06T02:31:02;16.46;96.61
66096;SHT31;53861;53.422;14.530;2023-08-06T02:33:29;16.44;96.44
66096;SHT31;53861;53.422;14.530;2023-08-06T02:35:59;16.40;96.49
66096;SHT31;53861;53.422;14.530;2023-08-06T02:38:26;16.41;96.92
66096;SHT31;53861;53.422;14.530;2023-08-06T02:40:53;16.37;96.78
66096;SHT31;53861;53.422;14.530;2023-08-06T02:43:20;16.37;97.26
66096;SHT31;53861;53.422;14.530;2023-08-06T02:45:47;16.44;96.88
66096;SHT31;53861;53.422;14.530;2023-08-06T02:48:15;16.43;96.78
66096;SHT31;53861;53.422;14.530;2023-08-06T02:50:43;16.46;97.20
66096;SHT31;53861;53.422;14.530;2023-08-06T02:53:10;16.46;97.23
66096;SHT31;53861;53.422;14.530;2023-08-06T02:55:37;16.41;97.27
66096;SHT31;53861;53.422;14.530;2023-08-06T02:58:04;16.41;97.29
66096;SHT31;53861;53.422;14.530;2023-08-06T03:00:31;16.38;97.74
66096;SHT31;53861;53.422;14.530;2023-08-06T03:02:58;16.38;97.71
66096;SHT31;53861;53.422;14.530;2023-08-06T03:05:26;16.30;97.61
66096;SHT31;53861;53.422;14.530;2023-08-06T03:07:53;16.34;97.74
66096;SHT31;53861;53.422;14.530;2023-08-06T03:10:20;16.33;97.74
66096;SHT31;53861;53.422;14.530;2023-08-06T03:12:47;16.28;98.06
66096;SHT31;53861;53.422;14.530;2023-08-06T03:15:14;16.26;97.83
66096;SHT31;53861;53.422;14.530;2023-08-06T03:17:41;16.27;98.07
66096;SHT31;53861;53.422;14.530;2023-08-06T03:20:09;16.24;97.97
66096;SHT31;53861;53.422;14.530;2023-08-06T03:22:38;16.20;98.12
66096;SHT31;53861;53.422;14.530;2023-08-06T03:25:05;16.21;98.19
66096;SHT31;53861;53.422;14.530;2023-08-06T03:27:32;16.18;98.06
66096;SHT31;53861;53.422;14.530;2023-08-06T03:29:59;16.13;98.16
66096;SHT31;53861;53.422;14.530;2023-08-06T03:32:27;16.21;98.35
66096;SHT31;53861;53.422;14.530;2023-08-06T03:34:54;16.17;98.30
66096;SHT31;53861;53.422;14.530;2023-08-06T03:37:21;16.12;98.12
66096;SHT31;53861;53.422;14.530;2023-08-06T03:39:50;16.10;98.32
66096;SHT31;53861;53.422;14.530;2023-08-06T03:42:16;16.09;98.27
66096;SHT31;53861;53.422;14.530;2023-08-06T03:44:44;16.04;98.14
66096;SHT31;53861;53.422;14.530;2023-08-06T03:47:13;16.06;98.46
66096;SHT31;53861;53.422;14.530;2023-08-06T03:49:40;16.13;98.33
66096;SHT31;53861;53.422;14.530;2023-08-06T03:52:07;16.10;98.71
66096;SHT31;53861;53.422;14.530;2023-08-06T03:54:34;16.10;98.39
66096;SHT31;53861;53.422;14.530;2023-08-06T03:57:02;16.14;98.35
66096;SHT31;53861;53.422;14.530;2023-08-06T03:59:29;16.12;98.50
66096;SHT31;53861;53.422;14.530;2023-08-06T04:01:56;16.09;98.41
66096;SHT31;53861;53.422;14.530;2023-08-06T04:04:23;16.12;98.53
66096;SHT31;53861;53.422;14.530;2023-08-06T04:06:50;16.12;98.45
66096;SHT31;53861;53.422;14.530;2023-08-06T04:09:17;16.14;98.62
66096;SHT31;53861;53.422;14.530;2023-08-06T04:11:44;16.06;98.31
66096;SHT31;53861;53.422;14.530;2023-08-06T04:14:13;16.09;98.43
66096;SHT31;53861;53.422;14.530;2023-08-06T04:16:40;16.12;98.68
66096;SHT31;53861;53.422;14.530;2023-08-06T04:19:06;16.12;98.58
66096;SHT31;53861;53.422;14.530;2023-08-06T04:21:33;16.14;98.49
66096;SHT31;53861;53.422;14.530;2023-08-06T04:24:00;16.21;98.54
66096;SHT31;53861;53.422;14.530;2023-08-06T04:26:27;16.14;98.49
66096;SHT31;53861;53.422;14.530;2023-08-06T04:28:54;16.12;98.22
66096;SHT31;53861;53.422;14.530;2023-08-06T04:31:23;16.06;97.83
66096;SHT31;53861;53.422;14.530;2023-08-06T04:33:50;16.00;97.93
66096;SHT31;53861;53.422;14.530;2023-08-06T04:36:17;16.06;98.19
66096;SHT31;53861;53.422;14.530;2023-08-06T04:38:43;16.04;98.17
66096;SHT31;53861;53.422;14.530;2023-08-06T04:41:12;16.07;98.07
66096;SHT31;53861;53.422;14.530;2023-08-06T04:43:39;16.04;98.03
66096;SHT31;53861;53.422;14.530;2023-08-06T04:46:06;16.09;98.16
66096;SHT31;53861;53.422;14.530;2023-08-06T04:48:35;16.09;98.13
66096;SHT31;53861;53.422;14.530;2023-08-06T04:51:02;16.10;98.52
66096;SHT31;53861;53.422;14.530;2023-08-06T04:53:29;16.07;98.55
66096;SHT31;53861;53.422;14.530;2023-08-06T04:55:55;16.09;98.43
66096;SHT31;53861;53.422;14.530;2023-08-06T04:58:22;15.95;97.92
66096;SHT31;53861;53.422;14.530;2023-08-06T05:00:49;15.99;98.37
66096;SHT31;53861;53.422;14.530;2023-08-06T05:03:16;16.09;98.52
66096;SHT31;53861;53.422;14.530;2023-08-06T05:05:45;16.04;98.55
66096;SHT31;53861;53.422;14.530;2023-08-06T05:08:13;16.02;98.41
66096;SHT31;53861;53.422;14.530;2023-08-06T05:10:42;16.02;98.59
66096;SHT31;53861;53.422;14.530;2023-08-06T05:13:09;16.04;98.85
66096;SHT31;53861;53.422;14.530;2023-08-06T05:15:35;15.97;98.20
66096;SHT31;53861;53.422;14.530;2023-08-06T05:18:02;16.00;98.50
66096;SHT31;53861;53.422;14.530;2023-08-06T05:20:29;16.03;98.42
66096;SHT31;53861;53.422;14.530;2023-08-06T05:22:58;16.04;98.55
66096;SHT31;53861;53.422;14.530;2023-08-06T05:25:25;16.07;98.16
66096;SHT31;53861;53.422;14.530;2023-08-06T05:27:52;16.12;98.23
66096;SHT31;53861;53.422;14.530;2023-08-06T05:30:19;16.10;98.37
66096;SHT31;53861;53.422;14.530;2023-08-06T05:32:46;16.13;98.51
66096;SHT31;53861;53.422;14.530;2023-08-06T05:35:13;16.12;98.60
66096;SHT31;53861;53.422;14.530;2023-08-06T05:37:40;16.02;97.94
66096;SHT31;53861;53.422;14.530;2023-08-06T05:40:09;16.03;97.81
66096;SHT31;53861;53.422;14.530;2023-08-06T05:42:36;15.97;97.97
66096;SHT31;53861;53.422;14.530;2023-08-06T05:45:03;16.10;98.39
66096;SHT31;53861;53.422;14.530;2023-08-06T05:47:30;16.13;98.33
66096;SHT31;53861;53.422;14.530;2023-08-06T05:49:57;16.20;98.48
66096;SHT31;53861;53.422;14.530;2023-08-06T05:52:24;16.24;98.22
66096;SHT31;53861;53.422;14.530;2023-08-06T05:54:51;16.18;98.08
66096;SHT31;53861;53.422;14.530;2023-08-06T05:57:19;16.18;97.88
66096;SHT31;53861;53.422;14.530;2023-08-06T05:59:46;16.17;98.00
66096;SHT31;53861;53.422;14.530;2023-08-06T06:02:13;16.24;98.48
66096;SHT31;53861;53.422;14.530;2023-08-06T06:04:40;16.26;98.44
66096;SHT31;53861;53.422;14.530;2023-08-06T06:07:07;16.23;98.23
66096;SHT31;53861;53.422;14.530;2023-08-06T06:09:34;16.33;97.96
66096;SHT31;53861;53.422;14.530;2023-08-06T06:12:01;16.30;98.15
66096;SHT31;53861;53.422;14.530;2023-08-06T06:14:29;16.28;97.47
66096;SHT31;53861;53.422;14.530;2023-08-06T06:16:56;16.23;98.00
66096;SHT31;53861;53.422;14.530;2023-08-06T06:19:26;16.17;97.67
66096;SHT31;53861;53.422;14.530;2023-08-06T06:21:53;16.18;98.13
66096;SHT31;53861;53.422;14.530;2023-08-06T06:24:23;16.17;97.72
66096;SHT31;53861;53.422;14.530;2023-08-06T06:26:50;16.10;97.29
66096;SHT31;53861;53.422;14.530;2023-08-06T06:29:17;16.13;97.23
66096;SHT31;53861;53.422;14.530;2023-08-06T06:31:45;16.20;97.94
66096;SHT31;53861;53.422;14.530;2023-08-06T06:34:12;16.24;97.64
66096;SHT31;53861;53.422;14.530;2023-08-06T06:36:39;16.33;97.46
66096;SHT31;53861;53.422;14.530;2023-08-06T06:39:06;16.28;97.00
66096;SHT31;53861;53.422;14.530;2023-08-06T06:41:33;16.24;96.82
66096;SHT31;53861;53.422;14.530;2023-08-06T06:44:00;16.20;97.07
66096;SHT31;53861;53.422;14.530;2023-08-06T06:46:27;16.23;97.25
66096;SHT31;53861;53.422;14.530;2023-08-06T06:48:56;16.24;97.90
66096;SHT31;53861;53.422;14.530;2023-08-06T06:51:22;16.21;97.29
66096;SHT31;53861;53.422;14.530;2023-08-06T06:53:49;16.31;97.81
66096;SHT31;53861;53.422;14.530;2023-08-06T06:56:16;16.34;96.54
66096;SHT31;53861;53.422;14.530;2023-08-06T06:58:43;16.30;97.56
66096;SHT31;53861;53.422;14.530;2023-08-06T07:01:10;16.30;98.19
66096;SHT31;53861;53.422;14.530;2023-08-06T07:03:37;16.14;96.83
66096;SHT31;53861;53.422;14.530;2023-08-06T07:06:06;16.13;96.94
66096;SHT31;53861;53.422;14.530;2023-08-06T07:08:33;16.28;97.98
66096;SHT31;53861;53.422;14.530;2023-08-06T07:11:00;16.30;97.46
66096;SHT31;53861;53.422;14.530;2023-08-06T07:13:28;16.27;97.14
66096;SHT31;53861;53.422;14.530;2023-08-06T07:15:55;16.24;96.78
66096;SHT31;53861;53.422;14.530;2023-08-06T07:18:22;16.26;97.57
66096;SHT31;53861;53.422;14.530;2023-08-06T07:20:49;16.33;97.02
66096;SHT31;53861;53.422;14.530;2023-08-06T07:23:17;16.33;96.60
66096;SHT31;53861;53.422;14.530;2023-08-06T07:25:45;16.23;96.13
66096;SHT31;53861;53.422;14.530;2023-08-06T07:28:12;16.31;96.39
66096;SHT31;53861;53.422;14.530;2023-08-06T07:30:39;16.33;96.61
66096;SHT31;53861;53.422;14.530;2023-08-06T07:33:06;16.36;96.58
66096;SHT31;53861;53.422;14.530;2023-08-06T07:35:33;16.43;96.59
66096;SHT31;53861;53.422;14.530;2023-08-06T07:38:00;16.41;96.91
66096;SHT31;53861;53.422;14.530;2023-08-06T07:40:29;16.38;96.33
66096;SHT31;53861;53.422;14.530;2023-08-06T07:42:56;16.38;96.36
66096;SHT31;53861;53.422;14.530;2023-08-06T07:45:23;16.40;96.34
66096;SHT31;53861;53.422;14.530;2023-08-06T07:47:52;16.36;96.18
66096;SHT31;53861;53.422;14.530;2023-08-06T07:50:19;16.37;96.91
66096;SHT31;53861;53.422;14.530;2023-08-06T07:52:46;16.47;96.26
66096;SHT31;53861;53.422;14.530;2023-08-06T07:55:13;16.43;95.34
66096;SHT31;53861;53.422;14.530;2023-08-06T07:57:42;16.38;95.14
66096;SHT31;53861;53.422;14.530;2023-08-06T08:00:09;16.47;95.58
66096;SHT31;53861;53.422;14.530;2023-08-06T08:02:36;16.53;94.91
66096;SHT31;53861;53.422;14.530;2023-08-06T08:05:04;16.51;95.23
66096;SHT31;53861;53.422;14.530;2023-08-06T08:07:32;16.67;94.68
66096;SHT31;53861;53.422;14.530;2023-08-06T08:09:59;16.72;94.77
66096;SHT31;53861;53.422;14.530;2023-08-06T08:12:26;16.74;94.70
66096;SHT31;53861;53.422;14.530;2023-08-06T08:14:55;16.84;94.24
66096;SHT31;53861;53.422;14.530;2023-08-06T08:17:21;16.88;94.45
66096;SHT31;53861;53.422;14.530;2023-08-06T08:19:48;16.88;94.62
66096;SHT31;53861;53.422;14.530;2023-08-06T08:22:15;16.94;94.26
66096;SHT31;53861;53.422;14.530;2023-08-06T08:24:42;16.81;94.97
66096;SHT31;53861;53.422;14.530;2023-08-06T08:27:09;16.89;95.02
66096;SHT31;53861;53.422;14.530;2023-08-06T08:29:36;16.94;94.32
66096;SHT31;53861;53.422;14.530;2023-08-06T08:32:05;16.87;94.22
66096;SHT31;53861;53.422;14.530;2023-08-06T08:34:31;16.82;94.73
66096;SHT31;53861;53.422;14.530;2023-08-06T08:36:58;16.84;94.63
66096;SHT31;53861;53.422;14.530;2023-08-06T08:39:25;16.69;94.99
66096;SHT31;53861;53.422;14.530;2023-08-06T08:41:52;16.71;94.64
66096;SHT31;53861;53.422;14.530;2023-08-06T08:44:19;16.85;94.69
66096;SHT31;53861;53.422;14.530;2023-08-06T08:46:46;16.77;95.04
66096;SHT31;53861;53.422;14.530;2023-08-06T08:49:16;16.88;94.84
66096;SHT31;53861;53.422;14.530;2023-08-06T08:51:43;16.87;95.22
66096;SHT31;53861;53.422;14.530;2023-08-06T08:54:11;16.91;94.65
66096;SHT31;53861;53.422;14.530;2023-08-06T08:56:40;17.02;94.40
66096;SHT31;53861;53.422;14.530;2023-08-06T08:59:07;17.18;93.50
66096;SHT31;53861;53.422;14.530;2023-08-06T09:01:34;17.35;93.67
66096;SHT31;53861;53.422;14.530;2023-08-06T09:04:01;17.43;92.69
66096;SHT31;53861;53.422;14.530;2023-08-06T09:06:31;17.39;93.79
66096;SHT31;53861;53.422;14.530;2023-08-06T09:09:06;17.40;94.11
66096;SHT31;53861;53.422;14.530;2023-08-06T09:11:35;17.49;93.59
66096;SHT31;53861;53.422;14.530;2023-08-06T09:14:12;17.40;93.27
66096;SHT31;53861;53.422;14.530;2023-08-06T09:16:44;17.23;93.29
66096;SHT31;53861;53.422;14.530;2023-08-06T09:19:11;17.20;93.69
66096;SHT31;53861;53.422;14.530;2023-08-06T09:21:40;17.15;94.36
66096;SHT31;53861;53.422;14.530;2023-08-06T09:24:08;17.07;94.20
66096;SHT31;53861;53.422;14.530;2023-08-06T09:26:36;17.07;93.65
66096;SHT31;53861;53.422;14.530;2023-08-06T09:29:08;17.08;93.96
66096;SHT31;53861;53.422;14.530;2023-08-06T09:31:40;17.11;93.85
66096;SHT31;53861;53.422;14.530;2023-08-06T09:34:10;17.18;94.40
66096;SHT31;53861;53.422;14.530;2023-08-06T09:36:40;17.15;94.19
66096;SHT31;53861;53.422;14.530;2023-08-06T09:39:14;17.02;94.54
66096;SHT31;53861;53.422;14.530;2023-08-06T09:41:45;17.07;94.59
66096;SHT31;53861;53.422;14.530;2023-08-06T09:44:16;17.08;94.35
66096;SHT31;53861;53.422;14.530;2023-08-06T09:46:50;17.09;94.46
66096;SHT31;53861;53.422;14.530;2023-08-06T09:49:18;17.22;94.36
66096;SHT31;53861;53.422;14.530;2023-08-06T09:51:48;17.15;94.80
66096;SHT31;53861;53.422;14.530;2023-08-06T09:54:22;17.07;94.81
66096;SHT31;53861;53.422;14.530;2023-08-06T09:56:49;17.11;94.76
66096;SHT31;53861;53.422;14.530;2023-08-06T09:59:19;17.11;95.11
66096;SHT31;53861;53.422;14.530;2023-08-06T10:01:46;17.14;94.85
66096;SHT31;53861;53.422;14.530;2023-08-06T10:04:15;16.99;95.10
66096;SHT31;53861;53.422;14.530;2023-08-06T10:06:59;16.98;94.93
66096;SHT31;53861;53.422;14.530;2023-08-06T10:09:34;16.96;95.26
66096;SHT31;53861;53.422;14.530;2023-08-06T10:12:02;16.94;95.33
66096;SHT31;53861;53.422;14.530;2023-08-06T10:14:35;16.91;95.31
66096;SHT31;53861;53.422;14.530;2023-08-06T10:17:21;16.98;95.35
66096;SHT31;53861;53.422;14.530;2023-08-06T10:19:50;16.92;95.35
66096;SHT31;53861;53.422;14.530;2023-08-06T10:22:24;16.89;95.64
66096;SHT31;53861;53.422;14.530;2023-08-06T10:24:53;16.79;95.86
66096;SHT31;53861;53.422;14.530;2023-08-06T10:27:28;16.78;95.89
66096;SHT31;53861;53.422;14.530;2023-08-06T10:32:48;16.75;95.89
66096;SHT31;53861;53.422;14.530;2023-08-06T10:38:01;16.64;96.24
66096;SHT31;53861;53.422;14.530;2023-08-06T10:40:29;16.65;96.65
66096;SHT31;53861;53.422;14.530;2023-08-06T10:43:00;16.61;96.85
66096;SHT31;53861;53.422;14.530;2023-08-06T10:45:30;16.63;96.84
66096;SHT31;53861;53.422;14.530;2023-08-06T10:48:00;16.61;96.78
66096;SHT31;53861;53.422;14.530;2023-08-06T10:50:27;16.56;96.87
66096;SHT31;53861;53.422;14.530;2023-08-06T10:53:04;16.63;96.63
66096;SHT31;53861;53.422;14.530;2023-08-06T10:55:32;16.60;96.59
66096;SHT31;53861;53.422;14.530;2023-08-06T10:58:01;16.58;97.07
66096;SHT31;53861;53.422;14.530;2023-08-06T11:00:32;16.63;97.03
66096;SHT31;53861;53.422;14.530;2023-08-06T11:03:03;16.54;97.05
66096;SHT31;53861;53.422;14.530;2023-08-06T11:05:36;16.51;97.40
66096;SHT31;53861;53.422;14.530;2023-08-06T11:08:04;16.44;96.86
66096;SHT31;53861;53.422;14.530;2023-08-06T11:10:35;16.40;97.27
66096;SHT31;53861;53.422;14.530;2023-08-06T11:13:03;16.36;97.66
66096;SHT31;53861;53.422;14.530;2023-08-06T11:15:36;16.40;97.63
66096;SHT31;53861;53.422;14.530;2023-08-06T11:18:05;16.44;97.16
66096;SHT31;53861;53.422;14.530;2023-08-06T11:20:38;16.41;96.98
66096;SHT31;53861;53.422;14.530;2023-08-06T11:23:11;16.44;97.16
66096;SHT31;53861;53.422;14.530;2023-08-06T11:25:43;16.44;96.99
66096;SHT31;53861;53.422;14.530;2023-08-06T11:28:20;16.48;96.93
66096;SHT31;53861;53.422;14.530;2023-08-06T11:30:47;16.54;97.11
66096;SHT31;53861;53.422;14.530;2023-08-06T11:33:27;16.57;96.98
66096;SHT31;53861;53.422;14.530;2023-08-06T11:35:54;16.60;96.64
66096;SHT31;53861;53.422;14.530;2023-08-06T11:38:24;16.67;96.78
66096;SHT31;53861;53.422;14.530;2023-08-06T11:43:45;16.72;96.62
66096;SHT31;53861;53.422;14.530;2023-08-06T11:46:26;16.75;96.53
66096;SHT31;53861;53.422;14.530;2023-08-06T11:48:54;16.81;96.69
66096;SHT31;53861;53.422;14.530;2023-08-06T11:51:30;16.79;96.52
66096;SHT31;53861;53.422;14.530;2023-08-06T11:54:00;16.72;96.19
66096;SHT31;53861;53.422;14.530;2023-08-06T11:56:34;16.82;96.00
66096;SHT31;53861;53.422;14.530;2023-08-06T11:59:07;16.82;96.36
66096;SHT31;53861;53.422;14.530;2023-08-06T12:01:48;16.75;95.89
66096;SHT31;53861;53.422;14.530;2023-08-06T12:04:15;16.85;96.17
66096;SHT31;53861;53.422;14.530;2023-08-06T12:06:42;16.77;96.34
66096;SHT31;53861;53.422;14.530;2023-08-06T12:09:11;16.68;96.06
66096;SHT31;53861;53.422;14.530;2023-08-06T12:11:38;16.65;95.82
66096;SHT31;53861;53.422;14.530;2023-08-06T12:14:05;16.71;95.89
66096;SHT31;53861;53.422;14.530;2023-08-06T12:16:31;16.75;96.38
66096;SHT31;53861;53.422;14.530;2023-08-06T12:18:58;16.68;95.78
66096;SHT31;53861;53.422;14.530;2023-08-06T12:21:25;16.71;95.70
66096;SHT31;53861;53.422;14.530;2023-08-06T12:23:55;16.68;95.79
66096;SHT31;53861;53.422;14.530;2023-08-06T12:26:23;16.64;96.08
66096;SHT31;53861;53.422;14.530;2023-08-06T12:28:50;16.53;96.14
66096;SHT31;53861;53.422;14.530;2023-08-06T12:31:21;16.51;96.21
66096;SHT31;53861;53.422;14.530;2023-08-06T12:33:48;16.51;96.43
66096;SHT31;53861;53.422;14.530;2023-08-06T12:36:15;16.48;96.94
66096;SHT31;53861;53.422;14.530;2023-08-06T12:38:42;16.37;97.30
66096;SHT31;53861;53.422;14.530;2023-08-06T12:41:09;16.40;96.91
66096;SHT31;53861;53.422;14.530;2023-08-06T12:43:37;16.28;97.15
66096;SHT31;53861;53.422;14.530;2023-08-06T12:46:04;16.23;97.13
66096;SHT31;53861;53.422;14.530;2023-08-06T12:48:31;16.21;97.40
66096;SHT31;53861;53.422;14.530;2023-08-06T12:50:58;16.23;97.74
66096;SHT31;53861;53.422;14.530;2023-08-06T12:53:25;16.27;97.64
66096;SHT31;53861;53.422;14.530;2023-08-06T12:55:53;16.36;97.50
66096;SHT31;53861;53.422;14.530;2023-08-06T12:58:20;16.31;96.66
66096;SHT31;53861;53.422;14.530;2023-08-06T13:00:48;16.33;96.56
66096;SHT31;53861;53.422;14.530;2023-08-06T13:03:15;16.26;96.27
66096;SHT31;53861;53.422;14.530;2023-08-06T13:05:42;16.30;96.51
66096;SHT31;53861;53.422;14.530;2023-08-06T13:08:10;16.30;96.20
66096;SHT31;53861;53.422;14.530;2023-08-06T13:10:37;16.33;95.94
66096;SHT31;53861;53.422;14.530;2023-08-06T13:13:04;16.18;96.01
66096;SHT31;53861;53.422;14.530;2023-08-06T13:15:31;16.21;95.53
66096;SHT31;53861;53.422;14.530;2023-08-06T13:18:00;16.17;95.55
66096;SHT31;53861;53.422;14.530;2023-08-06T13:20:27;16.12;95.92
66096;SHT31;53861;53.422;14.530;2023-08-06T13:22:54;16.12;96.26
66096;SHT31;53861;53.422;14.530;2023-08-06T13:25:21;16.10;96.33
66096;SHT31;53861;53.422;14.530;2023-08-06T13:27:48;16.04;96.08
66096;SHT31;53861;53.422;14.530;2023-08-06T13:30:15;15.97;95.91
66096;SHT31;53861;53.422;14.530;2023-08-06T13:32:46;16.00;96.13
66096;SHT31;53861;53.422;14.530;2023-08-06T13:35:14;15.97;96.49
66096;SHT31;53861;53.422;14.530;2023-08-06T13:37:41;15.97;96.59
66096;SHT31;53861;53.422;14.530;2023-08-06T13:40:08;15.92;96.67
66096;SHT31;53861;53.422;14.530;2023-08-06T13:42:35;15.97;96.18
66096;SHT31;53861;53.422;14.530;2023-08-06T13:45:03;15.96;96.17
66096;SHT31;53861;53.422;14.530;2023-08-06T13:47:30;16.00;95.71
66096;SHT31;53861;53.422;14.530;2023-08-06T13:49:57;15.96;96.30
66096;SHT31;53861;53.422;14.530;2023-08-06T13:52:26;15.96;95.81
66096;SHT31;53861;53.422;14.530;2023-08-06T13:54:53;15.90;95.60
66096;SHT31;53861;53.422;14.530;2023-08-06T13:57:20;15.82;95.29
66096;SHT31;53861;53.422;14.530;2023-08-06T13:59:47;15.78;94.94
66096;SHT31;53861;53.422;14.530;2023-08-06T14:02:15;15.76;95.15
66096;SHT31;53861;53.422;14.530;2023-08-06T14:04:42;15.75;95.36
66096;SHT31;53861;53.422;14.530;2023-08-06T14:07:09;15.63;95.53
66096;SHT31;53861;53.422;14.530;2023-08-06T14:09:39;15.72;95.58
66096;SHT31;53861;53.422;14.530;2023-08-06T14:12:10;15.67;95.71
66096;SHT31;53861;53.422;14.530;2023-08-06T14:14:37;15.67;96.02
66096;SHT31;53861;53.422;14.530;2023-08-06T14:17:07;15.67;95.98
66096;SHT31;53861;53.422;14.530;2023-08-06T14:19:34;15.67;96.22
66096;SHT31;53861;53.422;14.530;2023-08-06T14:22:01;15.65;95.84
66096;SHT31;53861;53.422;14.530;2023-08-06T14:24:28;15.52;95.69
66096;SHT31;53861;53.422;14.530;2023-08-06T14:26:59;15.46;96.01
66096;SHT31;53861;53.422;14.530;2023-08-06T14:29:34;15.45;96.38
66096;SHT31;53861;53.422;14.530;2023-08-06T14:32:04;15.44;95.78
66096;SHT31;53861;53.422;14.530;2023-08-06T14:34:31;15.48;95.73
66096;SHT31;53861;53.422;14.530;2023-08-06T14:37:10;15.48;95.87
66096;SHT31;53861;53.422;14.530;2023-08-06T14:39:40;15.46;96.34
66096;SHT31;53861;53.422;14.530;2023-08-06T14:42:11;15.52;96.41
66096;SHT31;53861;53.422;14.530;2023-08-06T14:44:38;15.46;96.64
66096;SHT31;53861;53.422;14.530;2023-08-06T14:47:07;15.44;97.05
66096;SHT31;53861;53.422;14.530;2023-08-06T14:52:33;15.35;96.12
66096;SHT31;53861;53.422;14.530;2023-08-06T14:55:00;15.28;96.06
66096;SHT31;53861;53.422;14.530;2023-08-06T14:57:30;15.25;96.22
66096;SHT31;53861;53.422;14.530;2023-08-06T14:59:58;15.25;96.41
66096;SHT31;53861;53.422;14.530;2023-08-06T15:02:27;15.35;96.56
66096;SHT31;53861;53.422;14.530;2023-08-06T15:04:54;15.35;97.08
66096;SHT31;53861;53.422;14.530;2023-08-06T15:07:24;15.34;96.59
66096;SHT31;53861;53.422;14.530;2023-08-06T15:09:54;15.31;96.87
66096;SHT31;53861;53.422;14.530;2023-08-06T15:15:29;15.22;96.97
66096;SHT31;53861;53.422;14.530;2023-08-06T15:17:58;15.25;96.65
66096;SHT31;53861;53.422;14.530;2023-08-06T15:20:25;15.22;96.53
66096;SHT31;53861;53.422;14.530;2023-08-06T15:22:52;15.25;96.48
66096;SHT31;53861;53.422;14.530;2023-08-06T15:25:20;15.28;96.39
66096;SHT31;53861;53.422;14.530;2023-08-06T15:27:47;15.22;95.85
66096;SHT31;53861;53.422;14.530;2023-08-06T15:33:18;15.22;96.12
66096;SHT31;53861;53.422;14.530;2023-08-06T15:35:55;15.22;95.55
66096;SHT31;53861;53.422;14.530;2023-08-06T15:41:23;15.08;95.14